Konotop, Ukraine
Current Conditions -  °F | °C
As of 12:30 AM on Thursday 23 Oct 2014 (Local Time) from UKBB Reporting Station
Overcast Overcast  
Wind Chill: 36°   Ceiling: 1200
Heat Index: 43°   Visibility: 6mi
Dew Point: 37°   Wind: 13mph
Humidity: 81%   Direction: 60°ENE
Pressure: 29.91"   Gusts: NA
Location:  51.24°N, 33.21°E
Report Text: UKBB 222130Z 06006MPS 9999 OVC012 06/03 Q1013 88CLRD95 NOSIG
Loading
Personal Weather Stations






























Interactive Weather Map
Tropical Storm Tracking
New forecast layout! Learn more

10-Day Weather Forecast

Advertisements
Track Severe Weather on mobile